createdAt,value
2022-08-08T05:32:02.247Z,81.20
2022-08-08T05:34:40.854Z,78.90
2022-08-08T05:37:17.153Z,77.40
2022-08-08T05:39:52.780Z,77.70
2022-08-08T05:42:35.281Z,72.30
2022-08-08T05:45:10.154Z,72.90
2022-08-08T05:48:00.491Z,71.50
2022-08-08T05:50:33.637Z,68.30
2022-08-08T05:53:54.834Z,61.40
2022-08-08T05:56:09.746Z,61.20
2022-08-08T05:58:57.099Z,58.70
2022-08-08T06:01:56.317Z,58.60
2022-08-08T06:04:24.406Z,56.20
2022-08-08T06:06:56.762Z,53.90
2022-08-08T06:09:58.754Z,52.50
2022-08-08T06:12:30.462Z,51.50
2022-08-08T06:15:03.073Z,49.70
2022-08-08T06:18:18.710Z,48.70
2022-08-08T06:20:19.899Z,48.90
2022-08-08T06:22:49.377Z,48.70
2022-08-08T06:25:18.185Z,48.30
2022-08-08T06:27:56.264Z,48.90
2022-08-08T06:30:28.624Z,47.80
2022-08-08T06:33:00.805Z,47.20
2022-08-08T06:36:07.349Z,46.80
2022-08-08T06:38:28.813Z,46.60
2022-08-08T06:41:04.812Z,46.10
2022-08-08T06:43:37.278Z,45.50
2022-08-08T06:46:08.832Z,45.10
2022-08-08T06:48:38.266Z,45.30
2022-08-08T06:51:08.496Z,44.90
2022-08-08T06:53:38.833Z,44.90
2022-08-08T06:56:09.045Z,45.00
2022-08-08T06:58:40.024Z,44.80
2022-08-08T07:01:24.474Z,44.30
2022-08-08T07:04:38.732Z,44.70
2022-08-08T07:06:56.577Z,44.60
2022-08-08T07:09:45.184Z,44.70
2022-08-08T07:12:19.530Z,44.80
2022-08-08T07:14:58.223Z,45.60
2022-08-08T07:17:56.739Z,46.20
2022-08-08T07:20:27.980Z,45.70
2022-08-08T07:23:23.533Z,45.30
2022-08-08T07:25:54.232Z,45.50
2022-08-08T07:28:24.138Z,45.30
2022-08-08T07:30:59.724Z,45.30
2022-08-08T07:33:28.848Z,45.60
2022-08-08T07:36:08.266Z,45.30
2022-08-08T07:38:38.110Z,45.00
2022-08-08T07:41:08.878Z,45.80
2022-08-08T07:43:54.864Z,45.80
2022-08-08T07:46:29.096Z,46.10
2022-08-08T07:48:58.539Z,45.80
2022-08-08T07:51:45.265Z,45.60
2022-08-08T07:57:21.522Z,44.90
2022-08-08T08:05:26.271Z,44.90
2022-08-08T08:08:16.726Z,45.70
2022-08-08T08:10:51.061Z,45.20
2022-08-08T08:14:07.582Z,45.10
2022-08-08T08:16:38.532Z,45.40
2022-08-08T08:19:10.762Z,44.00
2022-08-08T08:21:52.826Z,43.70
2022-08-08T08:24:32.292Z,43.30
2022-08-08T08:27:02.916Z,43.50
2022-08-08T08:29:31.418Z,43.30
2022-08-08T08:32:05.374Z,44.00
2022-08-08T08:34:34.050Z,44.40
2022-08-08T08:37:03.472Z,44.40
2022-08-08T08:39:59.427Z,44.50
2022-08-08T08:42:31.720Z,44.00
2022-08-08T08:45:21.179Z,43.80
2022-08-08T08:47:54.864Z,43.20
2022-08-08T08:50:33.718Z,44.10
2022-08-08T08:53:54.722Z,43.10
2022-08-08T08:56:02.128Z,44.10
2022-08-08T08:58:42.872Z,44.20
2022-08-08T09:01:14.687Z,44.10
2022-08-08T09:03:47.217Z,44.40
2022-08-08T09:06:40.507Z,44.10
2022-08-08T09:09:35.499Z,44.30
2022-08-08T09:12:09.716Z,44.10
2022-08-08T09:14:42.604Z,44.00
2022-08-08T09:17:18.263Z,43.70
2022-08-08T09:22:00.703Z,42.60
2022-08-08T09:22:35.959Z,42.20
2022-08-08T09:25:04.719Z,41.40
2022-08-08T09:27:57.651Z,41.90
2022-08-08T09:30:20.141Z,41.50
2022-08-08T09:33:55.644Z,41.70
2022-08-08T09:35:49.983Z,41.50
2022-08-08T09:38:53.200Z,41.50
2022-08-08T09:42:13.808Z,41.90
2022-08-08T09:44:34.233Z,41.70
2022-08-08T09:48:02.675Z,41.70
2022-08-08T09:50:03.413Z,41.00
2022-08-08T09:52:56.700Z,40.60
2022-08-08T09:55:51.825Z,41.70
2022-08-08T09:58:28.063Z,41.90
2022-08-08T10:01:15.163Z,41.30
2022-08-08T10:04:02.272Z,40.20
2022-08-08T10:06:32.494Z,41.30
2022-08-08T10:09:00.260Z,41.00
2022-08-08T10:12:27.746Z,41.60
2022-08-08T10:14:30.957Z,41.60
2022-08-08T10:17:57.115Z,42.70
2022-08-08T10:20:00.365Z,41.90
2022-08-08T10:22:32.374Z,41.20
2022-08-08T10:25:04.873Z,40.90
2022-08-08T10:27:42.640Z,40.50
2022-08-08T10:30:16.394Z,40.70
2022-08-08T10:33:00.811Z,41.20
2022-08-08T10:36:08.997Z,41.30
2022-08-08T10:38:19.835Z,41.30
2022-08-08T10:40:52.078Z,41.80
2022-08-08T10:43:22.831Z,41.30
2022-08-08T10:45:55.770Z,41.00
2022-08-08T10:48:55.841Z,41.70
2022-08-08T10:51:26.225Z,41.20
2022-08-08T10:53:57.119Z,41.60
2022-08-08T10:56:27.585Z,42.20
2022-08-08T10:59:01.577Z,41.60
2022-08-08T11:01:33.587Z,41.30
2022-08-08T11:04:04.812Z,41.30
2022-08-08T11:06:34.889Z,41.10
2022-08-08T11:09:15.516Z,41.80
2022-08-08T11:12:06.235Z,41.50
2022-08-08T11:14:50.606Z,41.70
2022-08-08T11:18:00.719Z,41.00
2022-08-08T11:20:14.252Z,41.50
2022-08-08T11:22:52.645Z,41.30
2022-08-08T11:25:52.928Z,42.50
2022-08-08T11:28:13.030Z,42.80
2022-08-08T11:30:52.699Z,42.60
2022-08-08T11:33:51.445Z,42.60
2022-08-08T11:36:14.509Z,43.10
2022-08-08T11:38:54.829Z,43.80
2022-08-08T11:41:25.010Z,44.20
2022-08-08T11:43:57.928Z,44.20
2022-08-08T11:46:28.160Z,43.70
2022-08-08T11:48:58.792Z,42.80
2022-08-08T11:51:30.719Z,43.30
2022-08-08T11:54:09.750Z,44.20
2022-08-08T11:56:55.904Z,44.50
2022-08-08T12:00:00.587Z,45.50
2022-08-08T12:02:32.361Z,45.50
2022-08-08T12:05:02.284Z,45.20
2022-08-08T12:07:29.694Z,45.20
2022-08-08T12:10:11.527Z,45.40
2022-08-08T12:12:48.725Z,45.90
2022-08-08T12:15:41.976Z,46.50
2022-08-08T12:18:21.427Z,46.00
2022-08-08T12:20:56.604Z,46.30
2022-08-08T12:23:58.209Z,46.60
2022-08-08T12:26:49.937Z,47.10
2022-08-08T12:29:42.077Z,47.80
2022-08-08T12:32:13.317Z,47.40
2022-08-08T12:34:50.730Z,47.00
2022-08-08T12:37:40.985Z,47.10
2022-08-08T12:40:22.435Z,46.80
2022-08-08T12:42:52.224Z,46.60
2022-08-08T12:45:54.858Z,46.80
2022-08-08T12:48:37.874Z,46.50
2022-08-08T12:51:11.250Z,46.70
2022-08-08T12:54:01.423Z,46.40
2022-08-08T12:56:36.880Z,46.60
2022-08-08T12:59:27.350Z,47.30
2022-08-08T13:02:06.904Z,47.60
2022-08-08T13:04:34.654Z,47.20
2022-08-08T13:07:11.855Z,47.00
2022-08-08T13:10:05.158Z,47.00
2022-08-08T13:12:39.620Z,46.90
2022-08-08T13:15:12.500Z,46.70
2022-08-08T13:17:54.039Z,46.60
2022-08-08T13:20:28.708Z,47.00
2022-08-08T13:23:26.822Z,46.20
2022-08-08T13:25:44.305Z,46.60
2022-08-08T13:28:27.715Z,47.20
2022-08-08T13:30:56.925Z,47.30
2022-08-08T13:33:25.198Z,46.90
2022-08-08T13:35:55.812Z,46.50
2022-08-08T13:38:24.061Z,46.60
2022-08-08T13:40:56.084Z,46.80
2022-08-08T13:43:23.405Z,47.10
2022-08-08T13:48:25.986Z,46.00
2022-08-08T13:50:57.612Z,46.40
2022-08-08T13:53:53.232Z,46.60
2022-08-08T13:56:44.912Z,46.70
2022-08-08T13:59:43.662Z,46.70
2022-08-08T14:02:21.857Z,46.60
2022-08-08T14:05:09.585Z,47.00
2022-08-08T14:07:49.843Z,46.80
2022-08-08T14:10:33.092Z,46.30
2022-08-08T14:13:30.809Z,45.80
2022-08-08T14:16:16.009Z,46.30
2022-08-08T14:18:53.641Z,46.50
2022-08-08T14:21:23.648Z,46.40
2022-08-08T14:24:07.132Z,46.30
2022-08-08T14:26:45.835Z,46.40
2022-08-08T14:29:28.300Z,46.30
2022-08-08T14:32:09.885Z,45.90
2022-08-08T14:34:42.153Z,46.10
2022-08-08T14:37:12.842Z,45.70
2022-08-08T14:39:48.259Z,45.80
2022-08-08T14:42:24.992Z,46.10
2022-08-08T14:44:56.949Z,46.10
2022-08-08T14:47:25.479Z,46.10
2022-08-08T14:50:10.723Z,46.10
2022-08-08T14:52:48.654Z,45.90
2022-08-08T14:55:22.254Z,45.90
2022-08-08T14:58:02.580Z,45.80
2022-08-08T15:00:34.880Z,45.90
2022-08-08T15:03:15.646Z,45.70
2022-08-08T15:05:53.755Z,45.90
2022-08-08T15:08:34.986Z,45.70
2022-08-08T15:11:08.981Z,44.40
2022-08-08T15:14:01.743Z,45.00
2022-08-08T15:16:28.184Z,45.50
2022-08-08T15:18:56.027Z,45.40
2022-08-08T15:21:30.038Z,45.80
2022-08-08T15:23:58.584Z,45.90
2022-08-08T15:26:28.973Z,45.90
2022-08-08T15:28:57.397Z,45.80
2022-08-08T15:32:02.963Z,45.60
2022-08-08T15:34:28.869Z,45.80
2022-08-08T15:37:01.787Z,45.80
2022-08-08T15:39:37.459Z,45.00
2022-08-08T15:42:10.600Z,45.40
2022-08-08T15:44:42.261Z,45.30
2022-08-08T15:47:15.614Z,45.40
2022-08-08T15:49:48.398Z,45.40
2022-08-08T15:52:20.531Z,45.30
2022-08-08T15:54:51.606Z,45.70
2022-08-08T15:57:21.780Z,45.90
2022-08-08T16:00:06.225Z,45.90
